sensor_id;sensor_type;location;lat;lon;timestamp;P1;durP1;ratioP1;P2;durP2;ratioP2
21315;SDS011;10817;55.820;13.030;2023-05-07T00:01:43;4.90;;;2.95;;
21315;SDS011;10817;55.820;13.030;2023-05-07T00:04:11;6.72;;;3.60;;
21315;SDS011;10817;55.820;13.030;2023-05-07T00:06:38;13.00;;;4.03;;
21315;SDS011;10817;55.820;13.030;2023-05-07T00:09:05;6.03;;;3.28;;
21315;SDS011;10817;55.820;13.030;2023-05-07T00:11:33;7.53;;;3.47;;
21315;SDS011;10817;55.820;13.030;2023-05-07T00:14:00;11.30;;;3.88;;
21315;SDS011;10817;55.820;13.030;2023-05-07T00:16:28;4.90;;;3.53;;
21315;SDS011;10817;55.820;13.030;2023-05-07T00:18:55;7.60;;;3.97;;
21315;SDS011;10817;55.820;13.030;2023-05-07T00:21:23;5.22;;;3.85;;
21315;SDS011;10817;55.820;13.030;2023-05-07T00:23:51;7.63;;;3.70;;
21315;SDS011;10817;55.820;13.030;2023-05-07T00:26:18;5.80;;;3.70;;
21315;SDS011;10817;55.820;13.030;2023-05-07T00:28:48;8.70;;;3.58;;
21315;SDS011;10817;55.820;13.030;2023-05-07T00:31:16;10.63;;;3.50;;
21315;SDS011;10817;55.820;13.030;2023-05-07T00:33:44;6.50;;;3.55;;
21315;SDS011;10817;55.820;13.030;2023-05-07T00:36:11;5.28;;;3.53;;
21315;SDS011;10817;55.820;13.030;2023-05-07T00:38:39;8.35;;;3.28;;
21315;SDS011;10817;55.820;13.030;2023-05-07T00:41:06;8.32;;;3.85;;
21315;SDS011;10817;55.820;13.030;2023-05-07T00:43:33;6.10;;;3.92;;
21315;SDS011;10817;55.820;13.030;2023-05-07T00:46:00;4.05;;;3.38;;
21315;SDS011;10817;55.820;13.030;2023-05-07T00:48:28;6.25;;;3.70;;
21315;SDS011;10817;55.820;13.030;2023-05-07T00:50:57;7.30;;;3.45;;
21315;SDS011;10817;55.820;13.030;2023-05-07T00:53:24;4.75;;;3.72;;
21315;SDS011;10817;55.820;13.030;2023-05-07T00:55:51;6.03;;;4.18;;
21315;SDS011;10817;55.820;13.030;2023-05-07T00:58:19;9.48;;;4.20;;
21315;SDS011;10817;55.820;13.030;2023-05-07T01:00:46;3.65;;;3.35;;
21315;SDS011;10817;55.820;13.030;2023-05-07T01:03:14;9.73;;;4.90;;
21315;SDS011;10817;55.820;13.030;2023-05-07T01:05:41;6.68;;;3.40;;
21315;SDS011;10817;55.820;13.030;2023-05-07T01:08:10;6.38;;;3.30;;
21315;SDS011;10817;55.820;13.030;2023-05-07T01:10:37;5.47;;;3.15;;
21315;SDS011;10817;55.820;13.030;2023-05-07T01:13:08;7.07;;;3.78;;
21315;SDS011;10817;55.820;13.030;2023-05-07T01:15:35;4.22;;;3.35;;
21315;SDS011;10817;55.820;13.030;2023-05-07T01:18:03;6.75;;;3.50;;
21315;SDS011;10817;55.820;13.030;2023-05-07T01:20:33;9.25;;;4.15;;
21315;SDS011;10817;55.820;13.030;2023-05-07T01:23:03;6.93;;;3.78;;
21315;SDS011;10817;55.820;13.030;2023-05-07T01:25:30;4.63;;;3.40;;
21315;SDS011;10817;55.820;13.030;2023-05-07T01:27:59;7.10;;;4.25;;
21315;SDS011;10817;55.820;13.030;2023-05-07T01:30:30;6.07;;;3.97;;
21315;SDS011;10817;55.820;13.030;2023-05-07T01:32:59;5.50;;;3.20;;
21315;SDS011;10817;55.820;13.030;2023-05-07T01:35:29;5.60;;;3.80;;
21315;SDS011;10817;55.820;13.030;2023-05-07T01:37:57;5.93;;;3.25;;
21315;SDS011;10817;55.820;13.030;2023-05-07T01:40:25;5.70;;;3.90;;
21315;SDS011;10817;55.820;13.030;2023-05-07T01:42:54;14.18;;;4.05;;
21315;SDS011;10817;55.820;13.030;2023-05-07T01:45:21;7.70;;;3.85;;
21315;SDS011;10817;55.820;13.030;2023-05-07T01:47:49;11.00;;;4.40;;
21315;SDS011;10817;55.820;13.030;2023-05-07T01:50:16;5.18;;;3.55;;
21315;SDS011;10817;55.820;13.030;2023-05-07T01:52:45;7.50;;;4.10;;
21315;SDS011;10817;55.820;13.030;2023-05-07T01:55:13;6.55;;;4.38;;
21315;SDS011;10817;55.820;13.030;2023-05-07T01:57:42;9.25;;;4.15;;
21315;SDS011;10817;55.820;13.030;2023-05-07T02:00:09;5.88;;;3.55;;
21315;SDS011;10817;55.820;13.030;2023-05-07T02:02:45;8.25;;;4.50;;
21315;SDS011;10817;55.820;13.030;2023-05-07T02:05:25;8.32;;;4.38;;
21315;SDS011;10817;55.820;13.030;2023-05-07T02:07:58;7.75;;;4.25;;
21315;SDS011;10817;55.820;13.030;2023-05-07T02:10:28;6.35;;;3.90;;
21315;SDS011;10817;55.820;13.030;2023-05-07T02:12:56;5.75;;;4.47;;
21315;SDS011;10817;55.820;13.030;2023-05-07T02:15:25;7.85;;;4.72;;
21315;SDS011;10817;55.820;13.030;2023-05-07T02:18:00;4.88;;;3.80;;
21315;SDS011;10817;55.820;13.030;2023-05-07T02:20:27;8.57;;;4.15;;
21315;SDS011;10817;55.820;13.030;2023-05-07T02:22:55;6.78;;;4.45;;
21315;SDS011;10817;55.820;13.030;2023-05-07T02:25:24;10.82;;;4.53;;
21315;SDS011;10817;55.820;13.030;2023-05-07T02:27:54;5.63;;;4.18;;
21315;SDS011;10817;55.820;13.030;2023-05-07T02:30:30;8.63;;;3.90;;
21315;SDS011;10817;55.820;13.030;2023-05-07T02:32:58;6.75;;;4.90;;
21315;SDS011;10817;55.820;13.030;2023-05-07T02:35:25;7.75;;;3.90;;
21315;SDS011;10817;55.820;13.030;2023-05-07T02:37:53;7.45;;;4.00;;
21315;SDS011;10817;55.820;13.030;2023-05-07T02:40:22;10.35;;;4.45;;
21315;SDS011;10817;55.820;13.030;2023-05-07T02:42:50;6.30;;;4.10;;
21315;SDS011;10817;55.820;13.030;2023-05-07T02:45:17;18.10;;;4.60;;
21315;SDS011;10817;55.820;13.030;2023-05-07T02:47:48;10.13;;;4.30;;
21315;SDS011;10817;55.820;13.030;2023-05-07T02:50:15;8.02;;;3.97;;
21315;SDS011;10817;55.820;13.030;2023-05-07T02:52:42;8.10;;;4.05;;
21315;SDS011;10817;55.820;13.030;2023-05-07T02:55:10;7.57;;;4.22;;
21315;SDS011;10817;55.820;13.030;2023-05-07T02:57:37;7.45;;;4.22;;
21315;SDS011;10817;55.820;13.030;2023-05-07T03:00:12;10.48;;;3.95;;
21315;SDS011;10817;55.820;13.030;2023-05-07T03:02:46;10.73;;;4.78;;
21315;SDS011;10817;55.820;13.030;2023-05-07T03:05:14;7.55;;;4.10;;
21315;SDS011;10817;55.820;13.030;2023-05-07T03:07:42;10.88;;;4.65;;
21315;SDS011;10817;55.820;13.030;2023-05-07T03:10:11;7.50;;;4.30;;
21315;SDS011;10817;55.820;13.030;2023-05-07T03:12:38;7.03;;;3.90;;
21315;SDS011;10817;55.820;13.030;2023-05-07T03:15:08;6.43;;;3.78;;
21315;SDS011;10817;55.820;13.030;2023-05-07T03:17:36;5.47;;;3.90;;
21315;SDS011;10817;55.820;13.030;2023-05-07T03:20:04;5.10;;;3.55;;
21315;SDS011;10817;55.820;13.030;2023-05-07T03:22:34;10.98;;;4.78;;
21315;SDS011;10817;55.820;13.030;2023-05-07T03:25:01;6.90;;;4.22;;
21315;SDS011;10817;55.820;13.030;2023-05-07T03:27:28;9.93;;;4.00;;
21315;SDS011;10817;55.820;13.030;2023-05-07T03:29:55;10.35;;;4.00;;
21315;SDS011;10817;55.820;13.030;2023-05-07T03:32:23;6.50;;;4.18;;
21315;SDS011;10817;55.820;13.030;2023-05-07T03:34:50;8.02;;;4.15;;
21315;SDS011;10817;55.820;13.030;2023-05-07T03:37:17;6.60;;;4.30;;
21315;SDS011;10817;55.820;13.030;2023-05-07T03:39:46;13.70;;;4.72;;
21315;SDS011;10817;55.820;13.030;2023-05-07T03:42:14;7.60;;;4.22;;
21315;SDS011;10817;55.820;13.030;2023-05-07T03:44:42;6.35;;;4.38;;
21315;SDS011;10817;55.820;13.030;2023-05-07T03:47:09;12.63;;;4.40;;
21315;SDS011;10817;55.820;13.030;2023-05-07T03:49:38;8.15;;;3.67;;
21315;SDS011;10817;55.820;13.030;2023-05-07T03:52:06;6.30;;;3.67;;
21315;SDS011;10817;55.820;13.030;2023-05-07T03:54:33;5.15;;;3.72;;
21315;SDS011;10817;55.820;13.030;2023-05-07T03:57:02;7.03;;;3.78;;
21315;SDS011;10817;55.820;13.030;2023-05-07T03:59:29;10.05;;;3.95;;
21315;SDS011;10817;55.820;13.030;2023-05-07T04:01:57;8.68;;;4.03;;
21315;SDS011;10817;55.820;13.030;2023-05-07T04:04:26;8.55;;;3.80;;
21315;SDS011;10817;55.820;13.030;2023-05-07T04:06:59;6.32;;;3.70;;
21315;SDS011;10817;55.820;13.030;2023-05-07T04:09:27;4.88;;;3.63;;
21315;SDS011;10817;55.820;13.030;2023-05-07T04:11:55;7.25;;;3.45;;
21315;SDS011;10817;55.820;13.030;2023-05-07T04:14:24;5.03;;;3.60;;
21315;SDS011;10817;55.820;13.030;2023-05-07T04:16:51;7.90;;;4.10;;
21315;SDS011;10817;55.820;13.030;2023-05-07T04:19:18;6.88;;;4.13;;
21315;SDS011;10817;55.820;13.030;2023-05-07T04:21:49;6.40;;;4.03;;
21315;SDS011;10817;55.820;13.030;2023-05-07T04:24:16;5.97;;;3.53;;
21315;SDS011;10817;55.820;13.030;2023-05-07T04:26:44;6.65;;;3.80;;
21315;SDS011;10817;55.820;13.030;2023-05-07T04:29:12;5.72;;;3.70;;
21315;SDS011;10817;55.820;13.030;2023-05-07T04:31:41;7.05;;;3.90;;
21315;SDS011;10817;55.820;13.030;2023-05-07T04:34:10;10.18;;;3.95;;
21315;SDS011;10817;55.820;13.030;2023-05-07T04:36:37;7.75;;;4.00;;
21315;SDS011;10817;55.820;13.030;2023-05-07T04:39:09;4.82;;;3.58;;
21315;SDS011;10817;55.820;13.030;2023-05-07T04:41:40;5.93;;;3.40;;
21315;SDS011;10817;55.820;13.030;2023-05-07T04:44:08;9.32;;;4.13;;
21315;SDS011;10817;55.820;13.030;2023-05-07T04:46:36;6.07;;;3.47;;
21315;SDS011;10817;55.820;13.030;2023-05-07T04:49:05;8.60;;;4.00;;
21315;SDS011;10817;55.820;13.030;2023-05-07T04:51:33;7.53;;;3.92;;
21315;SDS011;10817;55.820;13.030;2023-05-07T04:54:01;6.88;;;3.70;;
21315;SDS011;10817;55.820;13.030;2023-05-07T04:56:29;7.05;;;3.63;;
21315;SDS011;10817;55.820;13.030;2023-05-07T04:58:58;6.25;;;4.10;;
21315;SDS011;10817;55.820;13.030;2023-05-07T05:01:26;7.68;;;3.63;;
21315;SDS011;10817;55.820;13.030;2023-05-07T05:03:54;5.30;;;3.53;;
21315;SDS011;10817;55.820;13.030;2023-05-07T05:06:22;5.32;;;3.58;;
21315;SDS011;10817;55.820;13.030;2023-05-07T05:08:50;5.55;;;3.05;;
21315;SDS011;10817;55.820;13.030;2023-05-07T05:11:18;8.88;;;3.13;;
21315;SDS011;10817;55.820;13.030;2023-05-07T05:13:46;4.30;;;3.20;;
21315;SDS011;10817;55.820;13.030;2023-05-07T05:16:17;7.55;;;3.90;;
21315;SDS011;10817;55.820;13.030;2023-05-07T05:18:45;5.78;;;3.35;;
21315;SDS011;10817;55.820;13.030;2023-05-07T05:21:15;6.07;;;3.63;;
21315;SDS011;10817;55.820;13.030;2023-05-07T05:23:46;6.30;;;3.92;;
21315;SDS011;10817;55.820;13.030;2023-05-07T05:26:17;5.72;;;3.40;;
21315;SDS011;10817;55.820;13.030;2023-05-07T05:28:46;6.70;;;3.00;;
21315;SDS011;10817;55.820;13.030;2023-05-07T05:31:15;7.13;;;3.00;;
21315;SDS011;10817;55.820;13.030;2023-05-07T05:33:42;4.50;;;3.05;;
21315;SDS011;10817;55.820;13.030;2023-05-07T05:36:10;5.35;;;3.35;;
21315;SDS011;10817;55.820;13.030;2023-05-07T05:38:38;7.32;;;3.30;;
21315;SDS011;10817;55.820;13.030;2023-05-07T05:41:08;5.68;;;3.45;;
21315;SDS011;10817;55.820;13.030;2023-05-07T05:43:35;6.60;;;3.20;;
21315;SDS011;10817;55.820;13.030;2023-05-07T05:46:02;8.57;;;3.30;;
21315;SDS011;10817;55.820;13.030;2023-05-07T05:48:30;6.18;;;3.50;;
21315;SDS011;10817;55.820;13.030;2023-05-07T05:50:59;7.28;;;3.15;;
21315;SDS011;10817;55.820;13.030;2023-05-07T05:53:27;10.15;;;3.70;;
21315;SDS011;10817;55.820;13.030;2023-05-07T05:55:55;9.75;;;3.03;;
21315;SDS011;10817;55.820;13.030;2023-05-07T05:58:24;7.10;;;3.10;;
21315;SDS011;10817;55.820;13.030;2023-05-07T06:00:56;7.45;;;2.97;;
21315;SDS011;10817;55.820;13.030;2023-05-07T06:03:26;5.93;;;3.05;;
21315;SDS011;10817;55.820;13.030;2023-05-07T06:05:54;8.30;;;2.70;;
21315;SDS011;10817;55.820;13.030;2023-05-07T06:08:21;4.70;;;2.58;;
21315;SDS011;10817;55.820;13.030;2023-05-07T06:10:49;5.15;;;2.60;;
21315;SDS011;10817;55.820;13.030;2023-05-07T06:13:17;5.28;;;2.58;;
21315;SDS011;10817;55.820;13.030;2023-05-07T06:15:46;4.80;;;2.70;;
21315;SDS011;10817;55.820;13.030;2023-05-07T06:18:13;9.52;;;2.92;;
21315;SDS011;10817;55.820;13.030;2023-05-07T06:20:40;7.88;;;2.90;;
21315;SDS011;10817;55.820;13.030;2023-05-07T06:23:14;7.68;;;3.10;;
21315;SDS011;10817;55.820;13.030;2023-05-07T06:25:42;4.07;;;2.55;;
21315;SDS011;10817;55.820;13.030;2023-05-07T06:28:09;4.22;;;2.72;;
21315;SDS011;10817;55.820;13.030;2023-05-07T06:30:40;6.07;;;2.70;;
21315;SDS011;10817;55.820;13.030;2023-05-07T06:33:09;10.85;;;2.80;;
21315;SDS011;10817;55.820;13.030;2023-05-07T06:35:36;5.05;;;2.63;;
21315;SDS011;10817;55.820;13.030;2023-05-07T06:38:04;7.80;;;2.85;;
21315;SDS011;10817;55.820;13.030;2023-05-07T06:40:31;5.18;;;3.20;;
21315;SDS011;10817;55.820;13.030;2023-05-07T06:42:59;6.65;;;2.85;;
21315;SDS011;10817;55.820;13.030;2023-05-07T06:45:34;7.32;;;2.88;;
21315;SDS011;10817;55.820;13.030;2023-05-07T06:48:03;7.45;;;2.85;;
21315;SDS011;10817;55.820;13.030;2023-05-07T06:50:37;4.82;;;2.80;;
21315;SDS011;10817;55.820;13.030;2023-05-07T06:53:05;4.78;;;2.78;;
21315;SDS011;10817;55.820;13.030;2023-05-07T06:55:32;4.45;;;2.70;;
21315;SDS011;10817;55.820;13.030;2023-05-07T06:58:00;6.50;;;2.65;;
21315;SDS011;10817;55.820;13.030;2023-05-07T07:00:27;5.43;;;2.90;;
21315;SDS011;10817;55.820;13.030;2023-05-07T07:02:55;5.38;;;3.00;;
21315;SDS011;10817;55.820;13.030;2023-05-07T07:05:26;9.18;;;2.78;;
21315;SDS011;10817;55.820;13.030;2023-05-07T07:07:55;5.32;;;2.83;;
21315;SDS011;10817;55.820;13.030;2023-05-07T07:10:23;6.45;;;2.70;;
21315;SDS011;10817;55.820;13.030;2023-05-07T07:12:52;5.65;;;2.80;;
21315;SDS011;10817;55.820;13.030;2023-05-07T07:15:20;6.80;;;3.15;;
21315;SDS011;10817;55.820;13.030;2023-05-07T07:17:50;3.70;;;2.60;;
21315;SDS011;10817;55.820;13.030;2023-05-07T07:20:17;4.25;;;2.80;;
21315;SDS011;10817;55.820;13.030;2023-05-07T07:22:45;9.38;;;2.50;;
21315;SDS011;10817;55.820;13.030;2023-05-07T07:25:15;6.32;;;3.13;;
21315;SDS011;10817;55.820;13.030;2023-05-07T07:27:43;5.70;;;2.80;;
21315;SDS011;10817;55.820;13.030;2023-05-07T07:30:11;4.22;;;2.53;;
21315;SDS011;10817;55.820;13.030;2023-05-07T07:32:40;5.15;;;2.60;;
21315;SDS011;10817;55.820;13.030;2023-05-07T07:35:08;8.73;;;2.47;;
21315;SDS011;10817;55.820;13.030;2023-05-07T07:37:36;7.45;;;2.88;;
21315;SDS011;10817;55.820;13.030;2023-05-07T07:40:04;5.15;;;2.35;;
21315;SDS011;10817;55.820;13.030;2023-05-07T07:42:34;4.03;;;2.10;;
21315;SDS011;10817;55.820;13.030;2023-05-07T07:45:01;3.58;;;2.17;;
21315;SDS011;10817;55.820;13.030;2023-05-07T07:47:32;8.43;;;2.80;;
21315;SDS011;10817;55.820;13.030;2023-05-07T07:49:59;9.85;;;2.60;;
21315;SDS011;10817;55.820;13.030;2023-05-07T07:52:26;9.05;;;2.30;;
21315;SDS011;10817;55.820;13.030;2023-05-07T07:54:54;6.43;;;2.47;;
21315;SDS011;10817;55.820;13.030;2023-05-07T07:57:22;7.55;;;2.30;;
21315;SDS011;10817;55.820;13.030;2023-05-07T07:59:51;7.03;;;2.30;;
21315;SDS011;10817;55.820;13.030;2023-05-07T08:02:19;4.45;;;2.60;;
21315;SDS011;10817;55.820;13.030;2023-05-07T08:04:48;4.35;;;2.22;;
21315;SDS011;10817;55.820;13.030;2023-05-07T08:07:16;3.60;;;2.20;;
21315;SDS011;10817;55.820;13.030;2023-05-07T08:09:47;4.50;;;2.20;;
21315;SDS011;10817;55.820;13.030;2023-05-07T08:12:16;6.32;;;2.50;;
21315;SDS011;10817;55.820;13.030;2023-05-07T08:14:44;6.82;;;2.35;;
21315;SDS011;10817;55.820;13.030;2023-05-07T08:17:12;7.97;;;2.60;;
21315;SDS011;10817;55.820;13.030;2023-05-07T08:19:42;5.38;;;2.60;;
21315;SDS011;10817;55.820;13.030;2023-05-07T08:22:12;6.13;;;2.47;;
21315;SDS011;10817;55.820;13.030;2023-05-07T08:24:39;4.30;;;2.53;;
21315;SDS011;10817;55.820;13.030;2023-05-07T08:27:07;5.53;;;2.53;;
21315;SDS011;10817;55.820;13.030;2023-05-07T08:29:35;4.78;;;2.67;;
21315;SDS011;10817;55.820;13.030;2023-05-07T08:32:02;7.65;;;2.47;;
21315;SDS011;10817;55.820;13.030;2023-05-07T08:34:31;7.45;;;2.50;;
21315;SDS011;10817;55.820;13.030;2023-05-07T08:37:01;4.68;;;2.38;;
21315;SDS011;10817;55.820;13.030;2023-05-07T08:39:30;4.60;;;2.10;;
21315;SDS011;10817;55.820;13.030;2023-05-07T08:41:57;6.28;;;2.47;;
21315;SDS011;10817;55.820;13.030;2023-05-07T08:44:27;6.22;;;2.42;;
21315;SDS011;10817;55.820;13.030;2023-05-07T08:46:56;5.90;;;2.33;;
21315;SDS011;10817;55.820;13.030;2023-05-07T08:49:26;5.53;;;2.33;;
21315;SDS011;10817;55.820;13.030;2023-05-07T08:51:55;8.23;;;2.58;;
21315;SDS011;10817;55.820;13.030;2023-05-07T08:54:24;4.57;;;2.00;;
21315;SDS011;10817;55.820;13.030;2023-05-07T08:56:51;7.45;;;2.58;;
21315;SDS011;10817;55.820;13.030;2023-05-07T08:59:19;13.43;;;2.55;;
21315;SDS011;10817;55.820;13.030;2023-05-07T09:01:46;7.22;;;2.50;;
21315;SDS011;10817;55.820;13.030;2023-05-07T09:04:14;6.07;;;2.40;;
21315;SDS011;10817;55.820;13.030;2023-05-07T09:06:43;8.02;;;2.38;;
21315;SDS011;10817;55.820;13.030;2023-05-07T09:09:15;7.55;;;2.85;;
21315;SDS011;10817;55.820;13.030;2023-05-07T09:11:44;6.35;;;2.20;;
21315;SDS011;10817;55.820;13.030;2023-05-07T09:14:13;7.15;;;2.40;;
21315;SDS011;10817;55.820;13.030;2023-05-07T09:16:43;3.95;;;2.67;;
21315;SDS011;10817;55.820;13.030;2023-05-07T09:19:10;6.05;;;2.38;;
21315;SDS011;10817;55.820;13.030;2023-05-07T09:21:42;3.33;;;2.30;;
21315;SDS011;10817;55.820;13.030;2023-05-07T09:24:11;5.55;;;2.70;;
21315;SDS011;10817;55.820;13.030;2023-05-07T09:26:42;8.43;;;2.30;;
21315;SDS011;10817;55.820;13.030;2023-05-07T09:29:11;4.68;;;2.42;;
21315;SDS011;10817;55.820;13.030;2023-05-07T09:31:40;5.07;;;2.20;;
21315;SDS011;10817;55.820;13.030;2023-05-07T09:34:10;9.30;;;2.67;;
21315;SDS011;10817;55.820;13.030;2023-05-07T09:36:40;7.97;;;2.40;;
21315;SDS011;10817;55.820;13.030;2023-05-07T09:39:07;6.47;;;2.38;;
21315;SDS011;10817;55.820;13.030;2023-05-07T09:41:44;6.65;;;2.03;;
21315;SDS011;10817;55.820;13.030;2023-05-07T09:44:20;4.07;;;2.17;;
21315;SDS011;10817;55.820;13.030;2023-05-07T09:46:51;2.10;;;1.60;;
21315;SDS011;10817;55.820;13.030;2023-05-07T09:49:28;2.60;;;1.75;;
21315;SDS011;10817;55.820;13.030;2023-05-07T09:52:02;5.60;;;2.08;;
21315;SDS011;10817;55.820;13.030;2023-05-07T09:54:33;3.92;;;2.00;;
21315;SDS011;10817;55.820;13.030;2023-05-07T09:57:05;4.53;;;2.20;;
21315;SDS011;10817;55.820;13.030;2023-05-07T09:59:33;4.88;;;2.15;;
21315;SDS011;10817;55.820;13.030;2023-05-07T10:02:04;5.68;;;2.30;;
21315;SDS011;10817;55.820;13.030;2023-05-07T10:04:38;5.07;;;2.10;;
21315;SDS011;10817;55.820;13.030;2023-05-07T10:07:07;8.30;;;2.83;;
21315;SDS011;10817;55.820;13.030;2023-05-07T10:09:35;7.07;;;2.00;;
21315;SDS011;10817;55.820;13.030;2023-05-07T10:12:08;5.15;;;2.08;;
21315;SDS011;10817;55.820;13.030;2023-05-07T10:14:36;5.88;;;1.85;;
21315;SDS011;10817;55.820;13.030;2023-05-07T10:17:04;6.97;;;1.83;;
21315;SDS011;10817;55.820;13.030;2023-05-07T10:19:33;6.22;;;1.92;;
21315;SDS011;10817;55.820;13.030;2023-05-07T10:22:03;4.43;;;2.15;;
21315;SDS011;10817;55.820;13.030;2023-05-07T10:24:36;6.10;;;2.05;;
21315;SDS011;10817;55.820;13.030;2023-05-07T10:27:12;5.32;;;1.85;;
21315;SDS011;10817;55.820;13.030;2023-05-07T10:29:45;3.53;;;1.50;;
21315;SDS011;10817;55.820;13.030;2023-05-07T10:32:20;5.20;;;1.88;;
21315;SDS011;10817;55.820;13.030;2023-05-07T10:34:53;9.32;;;1.75;;
21315;SDS011;10817;55.820;13.030;2023-05-07T10:37:22;5.38;;;1.58;;
21315;SDS011;10817;55.820;13.030;2023-05-07T10:39:49;4.55;;;1.88;;
21315;SDS011;10817;55.820;13.030;2023-05-07T10:42:19;2.83;;;1.65;;
21315;SDS011;10817;55.820;13.030;2023-05-07T10:44:51;2.38;;;1.50;;
21315;SDS011;10817;55.820;13.030;2023-05-07T10:47:25;5.90;;;1.77;;
21315;SDS011;10817;55.820;13.030;2023-05-07T10:52:43;3.83;;;1.80;;
21315;SDS011;10817;55.820;13.030;2023-05-07T10:55:20;4.93;;;1.70;;
21315;SDS011;10817;55.820;13.030;2023-05-07T10:58:26;5.32;;;2.03;;
21315;SDS011;10817;55.820;13.030;2023-05-07T11:01:13;3.80;;;1.90;;
21315;SDS011;10817;55.820;13.030;2023-05-07T11:06:24;4.40;;;1.80;;
21315;SDS011;10817;55.820;13.030;2023-05-07T11:08:58;4.07;;;1.80;;
21315;SDS011;10817;55.820;13.030;2023-05-07T11:11:45;5.18;;;2.05;;
21315;SDS011;10817;55.820;13.030;2023-05-07T11:14:46;3.50;;;1.70;;
21315;SDS011;10817;55.820;13.030;2023-05-07T11:17:51;4.50;;;1.70;;
21315;SDS011;10817;55.820;13.030;2023-05-07T11:26:19;4.10;;;1.90;;
21315;SDS011;10817;55.820;13.030;2023-05-07T11:28:50;4.18;;;1.88;;
21315;SDS011;10817;55.820;13.030;2023-05-07T11:31:21;4.68;;;1.80;;
21315;SDS011;10817;55.820;13.030;2023-05-07T11:33:50;4.43;;;1.77;;
21315;SDS011;10817;55.820;13.030;2023-05-07T11:36:19;4.15;;;1.75;;
21315;SDS011;10817;55.820;13.030;2023-05-07T11:38:47;4.50;;;1.85;;
21315;SDS011;10817;55.820;13.030;2023-05-07T11:41:15;3.13;;;1.90;;
21315;SDS011;10817;55.820;13.030;2023-05-07T11:43:58;2.78;;;1.67;;
21315;SDS011;10817;55.820;13.030;2023-05-07T11:46:27;5.75;;;2.17;;
21315;SDS011;10817;55.820;13.030;2023-05-07T11:48:55;5.47;;;1.85;;
21315;SDS011;10817;55.820;13.030;2023-05-07T11:51:22;2.92;;;1.75;;
21315;SDS011;10817;55.820;13.030;2023-05-07T11:53:51;3.92;;;2.00;;
21315;SDS011;10817;55.820;13.030;2023-05-07T11:56:18;5.22;;;3.10;;
21315;SDS011;10817;55.820;13.030;2023-05-07T11:58:46;6.53;;;1.92;;
21315;SDS011;10817;55.820;13.030;2023-05-07T12:01:14;5.53;;;1.92;;
21315;SDS011;10817;55.820;13.030;2023-05-07T12:03:45;3.08;;;1.80;;
21315;SDS011;10817;55.820;13.030;2023-05-07T12:06:13;5.93;;;1.83;;
21315;SDS011;10817;55.820;13.030;2023-05-07T12:08:41;3.38;;;2.00;;
21315;SDS011;10817;55.820;13.030;2023-05-07T12:11:09;4.20;;;2.70;;
21315;SDS011;10817;55.820;13.030;2023-05-07T12:13:37;3.97;;;2.00;;
21315;SDS011;10817;55.820;13.030;2023-05-07T12:16:05;3.90;;;1.90;;
21315;SDS011;10817;55.820;13.030;2023-05-07T12:18:36;3.28;;;2.10;;
21315;SDS011;10817;55.820;13.030;2023-05-07T12:21:05;8.18;;;2.17;;
21315;SDS011;10817;55.820;13.030;2023-05-07T12:23:33;7.50;;;1.70;;
21315;SDS011;10817;55.820;13.030;2023-05-07T12:26:01;6.55;;;1.80;;
21315;SDS011;10817;55.820;13.030;2023-05-07T12:28:36;6.43;;;1.85;;
21315;SDS011;10817;55.820;13.030;2023-05-07T12:31:04;4.82;;;1.92;;
21315;SDS011;10817;55.820;13.030;2023-05-07T12:33:31;4.07;;;2.17;;
21315;SDS011;10817;55.820;13.030;2023-05-07T12:36:02;4.15;;;1.92;;
21315;SDS011;10817;55.820;13.030;2023-05-07T12:38:33;3.10;;;2.20;;
21315;SDS011;10817;55.820;13.030;2023-05-07T12:41:01;5.85;;;2.25;;
21315;SDS011;10817;55.820;13.030;2023-05-07T12:43:28;4.82;;;2.38;;
21315;SDS011;10817;55.820;13.030;2023-05-07T12:45:57;3.42;;;1.90;;
21315;SDS011;10817;55.820;13.030;2023-05-07T12:48:25;4.78;;;1.98;;
21315;SDS011;10817;55.820;13.030;2023-05-07T12:50:53;5.10;;;1.92;;
21315;SDS011;10817;55.820;13.030;2023-05-07T12:53:21;5.10;;;1.80;;
21315;SDS011;10817;55.820;13.030;2023-05-07T12:55:51;6.47;;;2.42;;
21315;SDS011;10817;55.820;13.030;2023-05-07T12:58:19;4.05;;;2.20;;
21315;SDS011;10817;55.820;13.030;2023-05-07T13:00:47;8.10;;;2.65;;
21315;SDS011;10817;55.820;13.030;2023-05-07T13:03:20;6.25;;;2.60;;
21315;SDS011;10817;55.820;13.030;2023-05-07T13:05:49;2.17;;;1.90;;
21315;SDS011;10817;55.820;13.030;2023-05-07T13:08:29;5.63;;;2.30;;
21315;SDS011;10817;55.820;13.030;2023-05-07T13:10:59;3.53;;;2.10;;
21315;SDS011;10817;55.820;13.030;2023-05-07T13:13:29;4.60;;;2.10;;
21315;SDS011;10817;55.820;13.030;2023-05-07T13:15:56;3.33;;;1.85;;
21315;SDS011;10817;55.820;13.030;2023-05-07T13:18:24;5.72;;;2.05;;
21315;SDS011;10817;55.820;13.030;2023-05-07T13:20:51;3.70;;;2.00;;
21315;SDS011;10817;55.820;13.030;2023-05-07T13:23:19;5.18;;;2.00;;
21315;SDS011;10817;55.820;13.030;2023-05-07T13:25:46;3.15;;;2.10;;
21315;SDS011;10817;55.820;13.030;2023-05-07T13:28:16;6.07;;;2.10;;
21315;SDS011;10817;55.820;13.030;2023-05-07T13:30:45;5.32;;;2.22;;
21315;SDS011;10817;55.820;13.030;2023-05-07T13:33:12;4.72;;;2.40;;
21315;SDS011;10817;55.820;13.030;2023-05-07T13:35:40;5.45;;;2.10;;
21315;SDS011;10817;55.820;13.030;2023-05-07T13:38:07;5.35;;;2.30;;
21315;SDS011;10817;55.820;13.030;2023-05-07T13:40:35;4.45;;;2.38;;
21315;SDS011;10817;55.820;13.030;2023-05-07T13:43:02;6.03;;;2.30;;
21315;SDS011;10817;55.820;13.030;2023-05-07T13:45:31;9.13;;;3.15;;
21315;SDS011;10817;55.820;13.030;2023-05-07T13:47:58;5.78;;;2.15;;
21315;SDS011;10817;55.820;13.030;2023-05-07T13:50:25;6.93;;;1.88;;
21315;SDS011;10817;55.820;13.030;2023-05-07T13:52:54;3.83;;;2.33;;
21315;SDS011;10817;55.820;13.030;2023-05-07T13:55:21;5.60;;;2.30;;
21315;SDS011;10817;55.820;13.030;2023-05-07T13:57:54;6.63;;;2.78;;
21315;SDS011;10817;55.820;13.030;2023-05-07T14:00:22;4.95;;;2.30;;
21315;SDS011;10817;55.820;13.030;2023-05-07T14:02:50;7.93;;;2.50;;
21315;SDS011;10817;55.820;13.030;2023-05-07T14:05:18;11.07;;;3.28;;
21315;SDS011;10817;55.820;13.030;2023-05-07T14:07:45;7.30;;;2.70;;
21315;SDS011;10817;55.820;13.030;2023-05-07T14:10:14;4.78;;;2.38;;
21315;SDS011;10817;55.820;13.030;2023-05-07T14:12:41;5.28;;;2.08;;
21315;SDS011;10817;55.820;13.030;2023-05-07T14:15:10;9.95;;;2.78;;
21315;SDS011;10817;55.820;13.030;2023-05-07T14:17:38;5.35;;;2.63;;
21315;SDS011;10817;55.820;13.030;2023-05-07T14:20:07;8.52;;;2.67;;
21315;SDS011;10817;55.820;13.030;2023-05-07T14:22:35;10.00;;;3.15;;
21315;SDS011;10817;55.820;13.030;2023-05-07T14:25:02;8.52;;;2.85;;
21315;SDS011;10817;55.820;13.030;2023-05-07T14:27:29;5.20;;;2.97;;
21315;SDS011;10817;55.820;13.030;2023-05-07T14:29:56;4.10;;;2.30;;
21315;SDS011;10817;55.820;13.030;2023-05-07T14:32:23;5.45;;;2.60;;
21315;SDS011;10817;55.820;13.030;2023-05-07T14:34:50;8.52;;;2.70;;
21315;SDS011;10817;55.820;13.030;2023-05-07T14:37:19;6.93;;;2.90;;
21315;SDS011;10817;55.820;13.030;2023-05-07T14:39:46;5.45;;;2.53;;
21315;SDS011;10817;55.820;13.030;2023-05-07T14:42:14;4.45;;;2.53;;
21315;SDS011;10817;55.820;13.030;2023-05-07T14:44:41;4.13;;;2.95;;
21315;SDS011;10817;55.820;13.030;2023-05-07T14:47:09;10.93;;;2.35;;
21315;SDS011;10817;55.820;13.030;2023-05-07T14:49:37;6.20;;;3.08;;
21315;SDS011;10817;55.820;13.030;2023-05-07T14:52:05;6.07;;;2.70;;
21315;SDS011;10817;55.820;13.030;2023-05-07T14:54:36;4.00;;;2.72;;
21315;SDS011;10817;55.820;13.030;2023-05-07T14:57:05;6.53;;;3.30;;